Arboles, CO (81121)

7:48 PM MST on February 07, 2016 (GMT -0700)
Crowbar Creek | | Change Station
CLOSE
Current Station
Personal Weather Station
Location: Bayfield, CO
Elevation: 6979 ft
Nearby Weather Stations

Elev 6979 ft 37.21 °N, 107.54 °W | Updated 8 seconds ago

Clear
Clear
21.1 °F
Feels Like 15 °F
N
4.6
Wind Variable Wind from ENE
Gusts 4.6 mph

Today
High -- | Low -- °F
--% Chance of Precip.
Yesterday
High -- | Low -- °F
Precip. -- in
Pressure 30.66 in
Visibility 10.0 miles
Clouds Clear
Windchill 15 °F
Dew Point 15 °F
Humidity 76%
Rainfall 0.00 in
Snow Depth Not available.
7:07 AM 5:41 PM
Waning Crescent, 0% visible
METAR KDRO 080153Z AUTO 08005KT 10SM CLR M08/M11 A3038 RMK AO2 SLP380 T10831111
Pressure 30.66 in
Visibility 10.0 miles
Clouds Clear
Windchill 15 °F
Dew Point 15 °F
Humidity 76%
Rainfall 0.00 in
Snow Depth Not available.
7:07 AM 5:41 PM
Waning Crescent, 0% visible
METAR KDRO 080153Z AUTO 08005KT 10SM CLR M08/M11 A3038 RMK AO2 SLP380 T10831111

10-Day Weather Forecast

Almanac

Astronomy

Feb. 07, 2016 Rise Set
Actual Time
Civil Twilight
Nautical Twilight
Astronomical Twilight
Moon
Length of Visible Light
Length of Day
Tomorrow will be .
, % of the Moon is Illuminated

Today's Extremes

State Highs State Lows

Community

WunderPhotos

Upload Photos

1,891,373 photos uploaded!

WunderBlog® & News

Nearby

Air Quality

  Air Quality AQ Index Pollutant
Not available.

Snow Depth

Station Depth Elevation

Earthquake Activity

City Distance Mag. Time & Date
Minimum magnitude displayed is 2.5.

Coastal Water Temperatures

Place Temperature

Stations

Nearby Weather Stations

Station Location Temp. Windchill Dew Point Humidity Wind Precip. Elev Updated Type
                   

Watches & Warnings

There are currently no watches in effect.